Terminal Aerodrome Forecast
Issued by NWS Tallahassee, FL

Home | Current Version | Previous Version | Text Only | Print | Product List | Glossary On
Versions: 1 2 3 4 5 6 7 8 9 10 11 12
000
FTUS42 KTAE 300520
TAFTLH
TAF
KTLH 300520Z 3006/3106 VRB03KT P6SM BKN250
     FM301400 27006KT P6SM SCT040
     FM301800 22010KT P6SM VCTS BKN050CB
      TEMPO 3019/3023 VRB15G30KT 2SM +TSRA BKN040CB
     FM310200 VRB03KT P6SM SCT030 OVC250=

USA.gov is the U.S. government's official web portal to all federal, state and local government web resources and services.